sensor_id;sensor_type;location;lat;lon;timestamp;temperature;humidity
10390;DHT22;5241;47.830;12.972;2022-08-16T00:00:40;18.00;99.90
10390;DHT22;5241;47.830;12.972;2022-08-16T00:03:07;17.90;99.90
10390;DHT22;5241;47.830;12.972;2022-08-16T00:05:33;17.90;99.90
10390;DHT22;5241;47.830;12.972;2022-08-16T00:07:59;17.90;99.90
10390;DHT22;5241;47.830;12.972;2022-08-16T00:10:27;17.80;99.90
10390;DHT22;5241;47.830;12.972;2022-08-16T00:12:53;17.80;99.90
10390;DHT22;5241;47.830;12.972;2022-08-16T00:15:54;17.80;99.90
10390;DHT22;5241;47.830;12.972;2022-08-16T00:18:15;17.80;99.90
10390;DHT22;5241;47.830;12.972;2022-08-16T00:20:43;17.80;99.90
10390;DHT22;5241;47.830;12.972;2022-08-16T00:23:10;17.70;99.90
10390;DHT22;5241;47.830;12.972;2022-08-16T00:25:36;17.80;99.90
10390;DHT22;5241;47.830;12.972;2022-08-16T00:28:02;17.80;99.90
10390;DHT22;5241;47.830;12.972;2022-08-16T00:30:28;17.80;99.90
10390;DHT22;5241;47.830;12.972;2022-08-16T00:32:56;17.80;99.90
10390;DHT22;5241;47.830;12.972;2022-08-16T00:35:25;17.70;99.90
10390;DHT22;5241;47.830;12.972;2022-08-16T00:37:51;17.70;99.90
10390;DHT22;5241;47.830;12.972;2022-08-16T00:40:21;17.70;99.90
10390;DHT22;5241;47.830;12.972;2022-08-16T00:42:47;17.70;99.90
10390;DHT22;5241;47.830;12.972;2022-08-16T00:47:57;17.50;99.90
10390;DHT22;5241;47.830;12.972;2022-08-16T00:50:28;17.40;99.90
10390;DHT22;5241;47.830;12.972;2022-08-16T00:52:54;17.40;99.90
10390;DHT22;5241;47.830;12.972;2022-08-16T00:55:21;17.30;99.90
10390;DHT22;5241;47.830;12.972;2022-08-16T00:57:50;17.30;99.90
10390;DHT22;5241;47.830;12.972;2022-08-16T01:00:17;17.30;99.90
10390;DHT22;5241;47.830;12.972;2022-08-16T01:02:43;17.30;99.90
10390;DHT22;5241;47.830;12.972;2022-08-16T01:05:09;17.30;99.90
10390;DHT22;5241;47.830;12.972;2022-08-16T01:07:35;17.20;99.90
10390;DHT22;5241;47.830;12.972;2022-08-16T01:10:01;17.20;99.90
10390;DHT22;5241;47.830;12.972;2022-08-16T01:12:26;17.20;99.90
10390;DHT22;5241;47.830;12.972;2022-08-16T01:14:55;17.20;99.90
10390;DHT22;5241;47.830;12.972;2022-08-16T01:17:22;17.20;99.90
10390;DHT22;5241;47.830;12.972;2022-08-16T01:19:53;17.10;99.90
10390;DHT22;5241;47.830;12.972;2022-08-16T01:25:13;17.10;99.90
10390;DHT22;5241;47.830;12.972;2022-08-16T01:27:47;17.20;99.90
10390;DHT22;5241;47.830;12.972;2022-08-16T01:30:24;17.10;99.90
10390;DHT22;5241;47.830;12.972;2022-08-16T01:32:52;17.00;99.90
10390;DHT22;5241;47.830;12.972;2022-08-16T01:35:24;17.10;99.90
10390;DHT22;5241;47.830;12.972;2022-08-16T01:37:53;17.10;99.90
10390;DHT22;5241;47.830;12.972;2022-08-16T01:40:22;17.10;99.90
10390;DHT22;5241;47.830;12.972;2022-08-16T01:42:50;17.10;99.90
10390;DHT22;5241;47.830;12.972;2022-08-16T01:45:18;17.00;99.90
10390;DHT22;5241;47.830;12.972;2022-08-16T01:47:45;17.00;99.90
10390;DHT22;5241;47.830;12.972;2022-08-16T01:50:11;17.00;99.90
10390;DHT22;5241;47.830;12.972;2022-08-16T01:52:37;17.10;99.90
10390;DHT22;5241;47.830;12.972;2022-08-16T01:55:05;17.10;99.90
10390;DHT22;5241;47.830;12.972;2022-08-16T01:57:31;17.10;99.90
10390;DHT22;5241;47.830;12.972;2022-08-16T01:59:58;17.20;99.90
10390;DHT22;5241;47.830;12.972;2022-08-16T02:02:23;17.20;99.90
10390;DHT22;5241;47.830;12.972;2022-08-16T02:04:50;17.20;99.90
10390;DHT22;5241;47.830;12.972;2022-08-16T02:07:16;17.20;99.90
10390;DHT22;5241;47.830;12.972;2022-08-16T02:09:44;17.20;99.90
10390;DHT22;5241;47.830;12.972;2022-08-16T02:12:10;17.20;99.90
10390;DHT22;5241;47.830;12.972;2022-08-16T02:14:37;17.20;99.90
10390;DHT22;5241;47.830;12.972;2022-08-16T02:17:05;17.20;99.90
10390;DHT22;5241;47.830;12.972;2022-08-16T02:19:33;17.20;99.90
10390;DHT22;5241;47.830;12.972;2022-08-16T02:22:00;17.20;99.90
10390;DHT22;5241;47.830;12.972;2022-08-16T02:24:27;17.20;99.90
10390;DHT22;5241;47.830;12.972;2022-08-16T02:26:52;17.20;99.90
10390;DHT22;5241;47.830;12.972;2022-08-16T02:29:18;17.20;99.90
10390;DHT22;5241;47.830;12.972;2022-08-16T02:31:46;17.20;99.90
10390;DHT22;5241;47.830;12.972;2022-08-16T02:34:13;17.20;99.90
10390;DHT22;5241;47.830;12.972;2022-08-16T02:36:41;17.30;99.90
10390;DHT22;5241;47.830;12.972;2022-08-16T02:39:07;17.30;99.90
10390;DHT22;5241;47.830;12.972;2022-08-16T02:41:34;17.30;99.90
10390;DHT22;5241;47.830;12.972;2022-08-16T02:44:01;17.30;99.90
10390;DHT22;5241;47.830;12.972;2022-08-16T02:46:27;17.30;99.90
10390;DHT22;5241;47.830;12.972;2022-08-16T02:48:52;17.30;99.90
10390;DHT22;5241;47.830;12.972;2022-08-16T02:51:18;17.20;99.90
10390;DHT22;5241;47.830;12.972;2022-08-16T02:53:46;17.20;99.90
10390;DHT22;5241;47.830;12.972;2022-08-16T02:56:14;17.30;99.90
10390;DHT22;5241;47.830;12.972;2022-08-16T02:58:39;17.30;99.90
10390;DHT22;5241;47.830;12.972;2022-08-16T03:01:06;17.30;99.90
10390;DHT22;5241;47.830;12.972;2022-08-16T03:03:31;17.30;99.90
10390;DHT22;5241;47.830;12.972;2022-08-16T03:05:58;17.30;99.90
10390;DHT22;5241;47.830;12.972;2022-08-16T03:08:24;17.20;99.90
10390;DHT22;5241;47.830;12.972;2022-08-16T03:10:50;17.20;99.90
10390;DHT22;5241;47.830;12.972;2022-08-16T03:13:16;17.20;99.90
10390;DHT22;5241;47.830;12.972;2022-08-16T03:15:43;17.20;99.90
10390;DHT22;5241;47.830;12.972;2022-08-16T03:18:08;17.30;99.90
10390;DHT22;5241;47.830;12.972;2022-08-16T03:20:34;17.30;99.90
10390;DHT22;5241;47.830;12.972;2022-08-16T03:23:00;17.30;99.90
10390;DHT22;5241;47.830;12.972;2022-08-16T03:25:25;17.30;99.90
10390;DHT22;5241;47.830;12.972;2022-08-16T03:27:51;17.20;99.90
10390;DHT22;5241;47.830;12.972;2022-08-16T03:30:23;17.30;99.90
10390;DHT22;5241;47.830;12.972;2022-08-16T03:32:49;17.30;99.90
10390;DHT22;5241;47.830;12.972;2022-08-16T03:35:16;17.20;99.90
10390;DHT22;5241;47.830;12.972;2022-08-16T03:37:42;17.20;99.90
10390;DHT22;5241;47.830;12.972;2022-08-16T03:40:11;17.20;99.90
10390;DHT22;5241;47.830;12.972;2022-08-16T03:42:36;17.20;99.90
10390;DHT22;5241;47.830;12.972;2022-08-16T03:45:03;17.10;99.90
10390;DHT22;5241;47.830;12.972;2022-08-16T03:47:28;17.10;99.90
10390;DHT22;5241;47.830;12.972;2022-08-16T03:49:54;17.20;99.90
10390;DHT22;5241;47.830;12.972;2022-08-16T03:52:21;17.20;99.90
10390;DHT22;5241;47.830;12.972;2022-08-16T03:54:47;17.10;99.90
10390;DHT22;5241;47.830;12.972;2022-08-16T03:57:13;17.10;99.90
10390;DHT22;5241;47.830;12.972;2022-08-16T03:59:38;17.00;99.90
10390;DHT22;5241;47.830;12.972;2022-08-16T04:02:04;17.00;99.90
10390;DHT22;5241;47.830;12.972;2022-08-16T04:04:31;17.00;99.90
10390;DHT22;5241;47.830;12.972;2022-08-16T04:06:57;17.00;99.90
10390;DHT22;5241;47.830;12.972;2022-08-16T04:09:22;17.10;99.90
10390;DHT22;5241;47.830;12.972;2022-08-16T04:11:48;17.10;99.90
10390;DHT22;5241;47.830;12.972;2022-08-16T04:14:13;17.10;99.90
10390;DHT22;5241;47.830;12.972;2022-08-16T04:16:39;17.10;99.90
10390;DHT22;5241;47.830;12.972;2022-08-16T04:19:04;17.10;99.90
10390;DHT22;5241;47.830;12.972;2022-08-16T04:21:32;17.10;99.90
10390;DHT22;5241;47.830;12.972;2022-08-16T04:23:58;17.10;99.90
10390;DHT22;5241;47.830;12.972;2022-08-16T04:26:24;17.10;99.90
10390;DHT22;5241;47.830;12.972;2022-08-16T04:28:49;17.10;99.90
10390;DHT22;5241;47.830;12.972;2022-08-16T04:31:15;17.20;99.90
10390;DHT22;5241;47.830;12.972;2022-08-16T04:33:41;17.20;99.90
10390;DHT22;5241;47.830;12.972;2022-08-16T04:36:06;17.30;99.90
10390;DHT22;5241;47.830;12.972;2022-08-16T04:38:32;17.40;99.90
10390;DHT22;5241;47.830;12.972;2022-08-16T04:40:58;17.50;99.90
10390;DHT22;5241;47.830;12.972;2022-08-16T04:43:24;17.40;99.90
10390;DHT22;5241;47.830;12.972;2022-08-16T04:45:50;17.40;99.90
10390;DHT22;5241;47.830;12.972;2022-08-16T04:48:15;17.50;99.90
10390;DHT22;5241;47.830;12.972;2022-08-16T04:50:41;17.50;99.90
10390;DHT22;5241;47.830;12.972;2022-08-16T04:53:07;17.60;99.90
10390;DHT22;5241;47.830;12.972;2022-08-16T04:55:33;17.60;99.90
10390;DHT22;5241;47.830;12.972;2022-08-16T04:57:58;17.60;99.90
10390;DHT22;5241;47.830;12.972;2022-08-16T05:00:27;17.60;99.90
10390;DHT22;5241;47.830;12.972;2022-08-16T05:02:57;17.70;99.90
10390;DHT22;5241;47.830;12.972;2022-08-16T05:05:23;17.70;99.90
10390;DHT22;5241;47.830;12.972;2022-08-16T05:07:48;17.80;99.90
10390;DHT22;5241;47.830;12.972;2022-08-16T05:10:15;17.80;99.90
10390;DHT22;5241;47.830;12.972;2022-08-16T05:12:41;17.90;99.90
10390;DHT22;5241;47.830;12.972;2022-08-16T05:15:08;18.00;99.90
10390;DHT22;5241;47.830;12.972;2022-08-16T05:17:34;18.10;99.90
10390;DHT22;5241;47.830;12.972;2022-08-16T05:20:00;18.10;99.90
10390;DHT22;5241;47.830;12.972;2022-08-16T05:22:26;18.20;99.90
10390;DHT22;5241;47.830;12.972;2022-08-16T05:24:52;18.20;99.90
10390;DHT22;5241;47.830;12.972;2022-08-16T05:27:18;18.20;99.90
10390;DHT22;5241;47.830;12.972;2022-08-16T05:29:44;18.20;99.90
10390;DHT22;5241;47.830;12.972;2022-08-16T05:32:09;18.30;99.90
10390;DHT22;5241;47.830;12.972;2022-08-16T05:34:35;18.40;99.90
10390;DHT22;5241;47.830;12.972;2022-08-16T05:37:00;18.50;99.90
10390;DHT22;5241;47.830;12.972;2022-08-16T05:39:27;18.50;99.90
10390;DHT22;5241;47.830;12.972;2022-08-16T05:41:53;18.60;99.90
10390;DHT22;5241;47.830;12.972;2022-08-16T05:44:20;18.70;99.90
10390;DHT22;5241;47.830;12.972;2022-08-16T05:46:46;18.90;99.90
10390;DHT22;5241;47.830;12.972;2022-08-16T05:49:13;19.00;99.90
10390;DHT22;5241;47.830;12.972;2022-08-16T05:51:44;19.10;99.90
10390;DHT22;5241;47.830;12.972;2022-08-16T05:54:12;19.20;99.90
10390;DHT22;5241;47.830;12.972;2022-08-16T05:56:39;19.40;99.90
10390;DHT22;5241;47.830;12.972;2022-08-16T05:59:06;19.50;99.90
10390;DHT22;5241;47.830;12.972;2022-08-16T06:01:31;19.70;99.90
10390;DHT22;5241;47.830;12.972;2022-08-16T06:03:57;19.70;99.90
10390;DHT22;5241;47.830;12.972;2022-08-16T06:06:22;19.80;99.90
10390;DHT22;5241;47.830;12.972;2022-08-16T06:08:48;20.00;99.90
10390;DHT22;5241;47.830;12.972;2022-08-16T06:11:13;20.00;99.90
10390;DHT22;5241;47.830;12.972;2022-08-16T06:13:39;19.90;99.90
10390;DHT22;5241;47.830;12.972;2022-08-16T06:16:07;19.80;99.90
10390;DHT22;5241;47.830;12.972;2022-08-16T06:18:32;19.80;99.90
10390;DHT22;5241;47.830;12.972;2022-08-16T06:20:58;19.70;99.90
10390;DHT22;5241;47.830;12.972;2022-08-16T06:23:24;19.70;99.90
10390;DHT22;5241;47.830;12.972;2022-08-16T06:25:51;19.70;99.90
10390;DHT22;5241;47.830;12.972;2022-08-16T06:28:18;19.80;99.90
10390;DHT22;5241;47.830;12.972;2022-08-16T06:30:45;19.90;99.90
10390;DHT22;5241;47.830;12.972;2022-08-16T06:33:12;20.00;99.90
10390;DHT22;5241;47.830;12.972;2022-08-16T06:35:38;20.10;99.90
10390;DHT22;5241;47.830;12.972;2022-08-16T06:38:04;20.20;99.90
10390;DHT22;5241;47.830;12.972;2022-08-16T06:40:30;20.30;99.90
10390;DHT22;5241;47.830;12.972;2022-08-16T06:42:55;20.20;99.90
10390;DHT22;5241;47.830;12.972;2022-08-16T06:45:22;20.30;99.90
10390;DHT22;5241;47.830;12.972;2022-08-16T06:47:48;20.40;99.90
10390;DHT22;5241;47.830;12.972;2022-08-16T06:50:14;20.40;99.90
10390;DHT22;5241;47.830;12.972;2022-08-16T06:52:39;20.50;99.90
10390;DHT22;5241;47.830;12.972;2022-08-16T06:55:07;20.80;99.90
10390;DHT22;5241;47.830;12.972;2022-08-16T06:57:33;21.00;99.90
10390;DHT22;5241;47.830;12.972;2022-08-16T06:59:59;21.10;99.90
10390;DHT22;5241;47.830;12.972;2022-08-16T07:02:24;21.10;99.90
10390;DHT22;5241;47.830;12.972;2022-08-16T07:04:51;21.10;99.90
10390;DHT22;5241;47.830;12.972;2022-08-16T07:07:17;21.20;99.90
10390;DHT22;5241;47.830;12.972;2022-08-16T07:09:44;21.30;99.90
10390;DHT22;5241;47.830;12.972;2022-08-16T07:12:12;21.30;99.90
10390;DHT22;5241;47.830;12.972;2022-08-16T07:14:39;21.50;99.90
10390;DHT22;5241;47.830;12.972;2022-08-16T07:17:05;21.50;99.90
10390;DHT22;5241;47.830;12.972;2022-08-16T07:19:32;21.60;99.90
10390;DHT22;5241;47.830;12.972;2022-08-16T07:21:58;21.50;99.90
10390;DHT22;5241;47.830;12.972;2022-08-16T07:24:27;21.60;99.90
10390;DHT22;5241;47.830;12.972;2022-08-16T07:26:53;22.00;99.90
10390;DHT22;5241;47.830;12.972;2022-08-16T07:29:19;22.70;99.90
10390;DHT22;5241;47.830;12.972;2022-08-16T07:31:44;23.40;99.90
10390;DHT22;5241;47.830;12.972;2022-08-16T07:34:10;23.70;99.90
10390;DHT22;5241;47.830;12.972;2022-08-16T07:36:35;23.80;99.90
10390;DHT22;5241;47.830;12.972;2022-08-16T07:39:02;23.70;99.90
10390;DHT22;5241;47.830;12.972;2022-08-16T07:41:27;23.80;99.90
10390;DHT22;5241;47.830;12.972;2022-08-16T07:43:53;24.30;99.90
10390;DHT22;5241;47.830;12.972;2022-08-16T07:46:19;24.90;99.90
10390;DHT22;5241;47.830;12.972;2022-08-16T07:48:44;25.50;99.90
10390;DHT22;5241;47.830;12.972;2022-08-16T07:51:10;25.50;98.70
10390;DHT22;5241;47.830;12.972;2022-08-16T07:53:35;25.80;98.30
10390;DHT22;5241;47.830;12.972;2022-08-16T07:56:03;25.90;96.50
10390;DHT22;5241;47.830;12.972;2022-08-16T07:58:29;26.10;95.30
10390;DHT22;5241;47.830;12.972;2022-08-16T08:00:55;25.90;95.70
10390;DHT22;5241;47.830;12.972;2022-08-16T08:03:21;25.90;95.10
10390;DHT22;5241;47.830;12.972;2022-08-16T08:05:46;26.00;94.50
10390;DHT22;5241;47.830;12.972;2022-08-16T08:08:12;26.10;93.90
10390;DHT22;5241;47.830;12.972;2022-08-16T08:10:38;26.30;93.20
10390;DHT22;5241;47.830;12.972;2022-08-16T08:13:04;26.30;93.10
10390;DHT22;5241;47.830;12.972;2022-08-16T08:15:29;26.80;92.20
10390;DHT22;5241;47.830;12.972;2022-08-16T08:17:56;26.60;91.70
10390;DHT22;5241;47.830;12.972;2022-08-16T08:20:22;26.80;91.10
10390;DHT22;5241;47.830;12.972;2022-08-16T08:22:52;26.60;91.20
10390;DHT22;5241;47.830;12.972;2022-08-16T08:25:18;27.10;91.40
10390;DHT22;5241;47.830;12.972;2022-08-16T08:27:45;27.00;90.50
10390;DHT22;5241;47.830;12.972;2022-08-16T08:30:11;26.80;90.40
10390;DHT22;5241;47.830;12.972;2022-08-16T08:32:37;26.60;90.60
10390;DHT22;5241;47.830;12.972;2022-08-16T08:35:04;27.20;90.20
10390;DHT22;5241;47.830;12.972;2022-08-16T08:37:31;27.70;86.40
10390;DHT22;5241;47.830;12.972;2022-08-16T08:39:57;27.50;85.90
10390;DHT22;5241;47.830;12.972;2022-08-16T08:42:22;27.90;84.50
10390;DHT22;5241;47.830;12.972;2022-08-16T08:44:49;27.50;84.70
10390;DHT22;5241;47.830;12.972;2022-08-16T08:47:14;27.50;86.60
10390;DHT22;5241;47.830;12.972;2022-08-16T08:49:40;27.30;86.20
10390;DHT22;5241;47.830;12.972;2022-08-16T08:52:06;27.70;85.70
10390;DHT22;5241;47.830;12.972;2022-08-16T08:54:31;28.00;82.40
10390;DHT22;5241;47.830;12.972;2022-08-16T08:56:57;28.10;81.00
10390;DHT22;5241;47.830;12.972;2022-08-16T08:59:23;28.60;81.10
10390;DHT22;5241;47.830;12.972;2022-08-16T09:01:49;28.70;78.70
10390;DHT22;5241;47.830;12.972;2022-08-16T09:04:15;28.80;76.10
10390;DHT22;5241;47.830;12.972;2022-08-16T09:06:42;28.60;75.00
10390;DHT22;5241;47.830;12.972;2022-08-16T09:09:08;28.70;76.10
10390;DHT22;5241;47.830;12.972;2022-08-16T09:11:35;28.80;76.40
10390;DHT22;5241;47.830;12.972;2022-08-16T09:14:02;28.80;74.90
10390;DHT22;5241;47.830;12.972;2022-08-16T09:16:28;28.80;75.60
10390;DHT22;5241;47.830;12.972;2022-08-16T09:18:53;28.60;73.80
10390;DHT22;5241;47.830;12.972;2022-08-16T09:21:20;28.90;73.80
10390;DHT22;5241;47.830;12.972;2022-08-16T09:23:46;29.20;69.20
10390;DHT22;5241;47.830;12.972;2022-08-16T09:26:12;29.60;67.90
10390;DHT22;5241;47.830;12.972;2022-08-16T09:28:40;29.60;68.90
10390;DHT22;5241;47.830;12.972;2022-08-16T09:31:06;29.60;68.20
10390;DHT22;5241;47.830;12.972;2022-08-16T09:33:32;29.20;68.60
10390;DHT22;5241;47.830;12.972;2022-08-16T09:35:57;29.00;67.90
10390;DHT22;5241;47.830;12.972;2022-08-16T09:38:24;29.20;66.70
10390;DHT22;5241;47.830;12.972;2022-08-16T09:40:50;29.20;67.20
10390;DHT22;5241;47.830;12.972;2022-08-16T09:43:18;29.00;68.20
10390;DHT22;5241;47.830;12.972;2022-08-16T09:45:45;29.20;65.90
10390;DHT22;5241;47.830;12.972;2022-08-16T09:48:12;29.10;65.70
10390;DHT22;5241;47.830;12.972;2022-08-16T09:50:41;29.10;66.60
10390;DHT22;5241;47.830;12.972;2022-08-16T09:53:11;29.70;65.30
10390;DHT22;5241;47.830;12.972;2022-08-16T09:55:38;29.90;64.60
10390;DHT22;5241;47.830;12.972;2022-08-16T09:58:04;29.30;66.90
10390;DHT22;5241;47.830;12.972;2022-08-16T10:00:29;29.50;66.70
10390;DHT22;5241;47.830;12.972;2022-08-16T10:02:55;29.80;65.80
10390;DHT22;5241;47.830;12.972;2022-08-16T10:05:20;29.80;64.00
10390;DHT22;5241;47.830;12.972;2022-08-16T10:07:47;30.00;63.10
10390;DHT22;5241;47.830;12.972;2022-08-16T10:10:21;30.60;62.90
10390;DHT22;5241;47.830;12.972;2022-08-16T10:12:48;30.20;62.60
10390;DHT22;5241;47.830;12.972;2022-08-16T10:15:34;30.30;63.60
10390;DHT22;5241;47.830;12.972;2022-08-16T10:18:00;30.20;61.20
10390;DHT22;5241;47.830;12.972;2022-08-16T10:20:29;29.60;63.90
10390;DHT22;5241;47.830;12.972;2022-08-16T10:22:55;30.40;61.20
10390;DHT22;5241;47.830;12.972;2022-08-16T10:25:20;30.00;62.50
10390;DHT22;5241;47.830;12.972;2022-08-16T10:27:47;29.60;64.00
10390;DHT22;5241;47.830;12.972;2022-08-16T10:30:14;29.90;62.00
10390;DHT22;5241;47.830;12.972;2022-08-16T10:32:40;29.90;61.90
10390;DHT22;5241;47.830;12.972;2022-08-16T10:35:06;29.20;63.40
10390;DHT22;5241;47.830;12.972;2022-08-16T10:37:32;29.50;63.80
10390;DHT22;5241;47.830;12.972;2022-08-16T10:39:57;29.60;64.20
10390;DHT22;5241;47.830;12.972;2022-08-16T10:42:24;30.30;60.10
10390;DHT22;5241;47.830;12.972;2022-08-16T10:44:49;30.40;59.60
10390;DHT22;5241;47.830;12.972;2022-08-16T10:47:15;29.80;59.90
10390;DHT22;5241;47.830;12.972;2022-08-16T10:49:41;29.90;61.00
10390;DHT22;5241;47.830;12.972;2022-08-16T10:52:06;30.30;62.10
10390;DHT22;5241;47.830;12.972;2022-08-16T10:54:32;31.30;58.50
10390;DHT22;5241;47.830;12.972;2022-08-16T10:56:59;31.80;55.90
10390;DHT22;5241;47.830;12.972;2022-08-16T10:59:26;31.60;55.60
10390;DHT22;5241;47.830;12.972;2022-08-16T11:01:52;32.10;54.90
10390;DHT22;5241;47.830;12.972;2022-08-16T11:04:17;31.90;55.10
10390;DHT22;5241;47.830;12.972;2022-08-16T11:06:43;32.00;55.60
10390;DHT22;5241;47.830;12.972;2022-08-16T11:09:09;31.80;54.90
10390;DHT22;5241;47.830;12.972;2022-08-16T11:11:34;30.90;57.00
10390;DHT22;5241;47.830;12.972;2022-08-16T11:14:00;31.00;56.40
10390;DHT22;5241;47.830;12.972;2022-08-16T11:16:25;31.40;56.50
10390;DHT22;5241;47.830;12.972;2022-08-16T11:18:54;31.70;55.80
10390;DHT22;5241;47.830;12.972;2022-08-16T11:21:21;32.70;54.00
10390;DHT22;5241;47.830;12.972;2022-08-16T11:23:51;32.80;54.20
10390;DHT22;5241;47.830;12.972;2022-08-16T11:26:17;33.20;52.90
10390;DHT22;5241;47.830;12.972;2022-08-16T11:28:43;32.50;54.00
10390;DHT22;5241;47.830;12.972;2022-08-16T11:31:09;32.50;54.20
10390;DHT22;5241;47.830;12.972;2022-08-16T11:33:35;32.80;53.70
10390;DHT22;5241;47.830;12.972;2022-08-16T11:36:00;32.60;53.70
10390;DHT22;5241;47.830;12.972;2022-08-16T11:38:27;32.80;53.80
10390;DHT22;5241;47.830;12.972;2022-08-16T11:40:55;33.60;51.30
10390;DHT22;5241;47.830;12.972;2022-08-16T11:43:30;34.00;50.90
10390;DHT22;5241;47.830;12.972;2022-08-16T11:45:58;34.10;50.60
10390;DHT22;5241;47.830;12.972;2022-08-16T11:48:26;34.00;50.60
10390;DHT22;5241;47.830;12.972;2022-08-16T11:50:52;33.40;50.00
10390;DHT22;5241;47.830;12.972;2022-08-16T11:53:19;32.30;53.50
10390;DHT22;5241;47.830;12.972;2022-08-16T11:55:46;32.50;53.70
10390;DHT22;5241;47.830;12.972;2022-08-16T11:58:12;33.40;51.40
10390;DHT22;5241;47.830;12.972;2022-08-16T12:00:40;33.40;49.40
10390;DHT22;5241;47.830;12.972;2022-08-16T12:03:06;33.60;50.20
10390;DHT22;5241;47.830;12.972;2022-08-16T12:05:33;34.40;49.10
10390;DHT22;5241;47.830;12.972;2022-08-16T12:08:00;33.60;49.90
10390;DHT22;5241;47.830;12.972;2022-08-16T12:10:27;33.00;51.00
10390;DHT22;5241;47.830;12.972;2022-08-16T12:12:52;32.60;52.00
10390;DHT22;5241;47.830;12.972;2022-08-16T12:15:18;32.30;51.80
10390;DHT22;5241;47.830;12.972;2022-08-16T12:17:44;31.80;53.00
10390;DHT22;5241;47.830;12.972;2022-08-16T12:20:14;32.80;50.40
10390;DHT22;5241;47.830;12.972;2022-08-16T12:22:40;33.30;50.20
10390;DHT22;5241;47.830;12.972;2022-08-16T12:25:14;33.70;50.00
10390;DHT22;5241;47.830;12.972;2022-08-16T12:27:41;33.70;48.40
10390;DHT22;5241;47.830;12.972;2022-08-16T12:30:08;33.90;49.00
10390;DHT22;5241;47.830;12.972;2022-08-16T12:32:33;34.00;47.30
10390;DHT22;5241;47.830;12.972;2022-08-16T12:34:59;34.20;46.70
10390;DHT22;5241;47.830;12.972;2022-08-16T12:37:26;34.50;45.90
10390;DHT22;5241;47.830;12.972;2022-08-16T12:39:53;34.20;47.90
10390;DHT22;5241;47.830;12.972;2022-08-16T12:42:20;33.90;49.20
10390;DHT22;5241;47.830;12.972;2022-08-16T12:44:47;33.00;49.20
10390;DHT22;5241;47.830;12.972;2022-08-16T12:47:14;32.50;50.00
10390;DHT22;5241;47.830;12.972;2022-08-16T12:49:58;33.30;49.70
10390;DHT22;5241;47.830;12.972;2022-08-16T12:52:24;33.80;46.60
10390;DHT22;5241;47.830;12.972;2022-08-16T12:54:49;34.80;47.00
10390;DHT22;5241;47.830;12.972;2022-08-16T12:57:15;35.20;45.00
10390;DHT22;5241;47.830;12.972;2022-08-16T12:59:41;35.60;43.20
10390;DHT22;5241;47.830;12.972;2022-08-16T13:02:07;35.60;44.00
10390;DHT22;5241;47.830;12.972;2022-08-16T13:04:33;35.80;44.10
10390;DHT22;5241;47.830;12.972;2022-08-16T13:07:00;35.40;43.50
10390;DHT22;5241;47.830;12.972;2022-08-16T13:09:26;34.90;44.50
10390;DHT22;5241;47.830;12.972;2022-08-16T13:12:05;35.10;43.80
10390;DHT22;5241;47.830;12.972;2022-08-16T13:14:41;35.10;45.30
10390;DHT22;5241;47.830;12.972;2022-08-16T13:17:14;35.20;44.20
10390;DHT22;5241;47.830;12.972;2022-08-16T13:19:39;35.90;42.90
10390;DHT22;5241;47.830;12.972;2022-08-16T13:22:06;35.50;42.50
10390;DHT22;5241;47.830;12.972;2022-08-16T13:24:31;35.60;41.60
10390;DHT22;5241;47.830;12.972;2022-08-16T13:26:57;35.50;42.70
10390;DHT22;5241;47.830;12.972;2022-08-16T13:29:23;34.90;43.30
10390;DHT22;5241;47.830;12.972;2022-08-16T13:31:48;34.90;44.10
10390;DHT22;5241;47.830;12.972;2022-08-16T13:34:14;35.20;44.20
10390;DHT22;5241;47.830;12.972;2022-08-16T13:36:40;35.40;42.90
10390;DHT22;5241;47.830;12.972;2022-08-16T13:39:07;35.40;42.70
10390;DHT22;5241;47.830;12.972;2022-08-16T13:41:34;35.00;44.00
10390;DHT22;5241;47.830;12.972;2022-08-16T13:44:00;33.80;45.00
10390;DHT22;5241;47.830;12.972;2022-08-16T13:46:28;34.00;45.10
10390;DHT22;5241;47.830;12.972;2022-08-16T13:48:56;34.90;44.20
10390;DHT22;5241;47.830;12.972;2022-08-16T13:51:22;35.10;43.70
10390;DHT22;5241;47.830;12.972;2022-08-16T13:53:51;35.50;42.70
10390;DHT22;5241;47.830;12.972;2022-08-16T13:56:17;35.40;43.20
10390;DHT22;5241;47.830;12.972;2022-08-16T13:58:44;35.20;43.70
10390;DHT22;5241;47.830;12.972;2022-08-16T14:01:09;35.30;43.20
10390;DHT22;5241;47.830;12.972;2022-08-16T14:03:39;35.20;43.30
10390;DHT22;5241;47.830;12.972;2022-08-16T14:06:09;35.70;43.20
10390;DHT22;5241;47.830;12.972;2022-08-16T14:08:35;36.10;42.60
10390;DHT22;5241;47.830;12.972;2022-08-16T14:11:01;35.80;43.20
10390;DHT22;5241;47.830;12.972;2022-08-16T14:13:28;35.10;44.30
10390;DHT22;5241;47.830;12.972;2022-08-16T14:15:54;35.10;44.70
10390;DHT22;5241;47.830;12.972;2022-08-16T14:18:19;35.30;43.80
10390;DHT22;5241;47.830;12.972;2022-08-16T14:20:45;35.00;44.30
10390;DHT22;5241;47.830;12.972;2022-08-16T14:23:11;35.30;44.70
10390;DHT22;5241;47.830;12.972;2022-08-16T14:25:36;35.30;43.20
10390;DHT22;5241;47.830;12.972;2022-08-16T14:28:02;35.30;43.60
10390;DHT22;5241;47.830;12.972;2022-08-16T14:30:27;35.00;44.30
10390;DHT22;5241;47.830;12.972;2022-08-16T14:32:54;35.40;42.70
10390;DHT22;5241;47.830;12.972;2022-08-16T14:35:26;35.70;42.90
10390;DHT22;5241;47.830;12.972;2022-08-16T14:37:52;36.30;41.60
10390;DHT22;5241;47.830;12.972;2022-08-16T14:40:18;36.00;42.10
10390;DHT22;5241;47.830;12.972;2022-08-16T14:42:45;36.00;42.20
10390;DHT22;5241;47.830;12.972;2022-08-16T14:45:13;36.40;41.60
10390;DHT22;5241;47.830;12.972;2022-08-16T14:47:40;35.70;43.60
10390;DHT22;5241;47.830;12.972;2022-08-16T14:50:08;35.10;43.80
10390;DHT22;5241;47.830;12.972;2022-08-16T14:52:35;35.10;44.80
10390;DHT22;5241;47.830;12.972;2022-08-16T14:55:01;35.50;44.10
10390;DHT22;5241;47.830;12.972;2022-08-16T14:57:26;35.50;43.50
10390;DHT22;5241;47.830;12.972;2022-08-16T14:59:52;35.00;44.10
10390;DHT22;5241;47.830;12.972;2022-08-16T15:02:22;35.10;44.00
10390;DHT22;5241;47.830;12.972;2022-08-16T15:04:49;35.50;43.50
10390;DHT22;5241;47.830;12.972;2022-08-16T15:07:17;34.90;44.30
10390;DHT22;5241;47.830;12.972;2022-08-16T15:09:46;35.20;44.00
10390;DHT22;5241;47.830;12.972;2022-08-16T15:12:17;35.30;43.20
10390;DHT22;5241;47.830;12.972;2022-08-16T15:14:44;35.70;43.90
10390;DHT22;5241;47.830;12.972;2022-08-16T15:17:11;35.70;43.10
10390;DHT22;5241;47.830;12.972;2022-08-16T15:19:37;34.80;44.70
10390;DHT22;5241;47.830;12.972;2022-08-16T15:22:08;35.20;43.50
10390;DHT22;5241;47.830;12.972;2022-08-16T15:24:34;35.50;43.80
10390;DHT22;5241;47.830;12.972;2022-08-16T15:27:00;35.30;44.10
10390;DHT22;5241;47.830;12.972;2022-08-16T15:29:26;35.20;43.50
10390;DHT22;5241;47.830;12.972;2022-08-16T15:31:51;35.00;43.40